createdAt,value
2023-02-11T00:05:19.061Z,55.13
2023-02-11T00:10:40.600Z,48.23
2023-02-11T00:16:10.839Z,48.60
2023-02-11T00:21:33.000Z,49.47
2023-02-11T00:26:55.331Z,49.60
2023-02-11T00:32:17.635Z,52.63
2023-02-11T00:37:39.161Z,53.10
2023-02-11T00:43:00.655Z,31.53
2023-02-11T00:48:22.242Z,56.83
2023-02-11T00:53:43.754Z,46.37
2023-02-11T00:59:05.151Z,56.73
2023-02-11T01:04:26.802Z,60.33
2023-02-11T01:09:48.270Z,38.53
2023-02-11T01:15:12.221Z,54.17
2023-02-11T01:20:33.469Z,60.10
2023-02-11T01:25:55.273Z,52.23
2023-02-11T01:31:16.586Z,54.70
2023-02-11T01:36:38.498Z,53.43
2023-02-11T01:42:00.026Z,29.73
2023-02-11T01:47:22.177Z,46.53
2023-02-11T01:52:46.410Z,53.10
2023-02-11T01:58:10.061Z,52.30
2023-02-11T02:03:33.791Z,49.90
2023-02-11T02:09:01.271Z,51.23
2023-02-11T02:14:24.033Z,53.07
2023-02-11T02:20:10.833Z,43.87
2023-02-11T02:26:01.770Z,50.97
2023-02-11T02:31:37.976Z,49.43
2023-02-11T02:37:08.386Z,53.00
2023-02-11T02:42:30.568Z,49.63
2023-02-11T02:47:52.176Z,51.67
2023-02-11T02:53:18.291Z,48.03
2023-02-11T02:59:15.116Z,42.90
2023-02-11T03:04:50.968Z,45.43
2023-02-11T03:10:24.445Z,48.87
2023-02-11T03:15:50.419Z,46.10
2023-02-11T03:21:14.196Z,37.50
2023-02-11T03:26:44.248Z,50.50
2023-02-11T03:32:42.213Z,47.87
2023-02-11T03:38:15.589Z,50.23
2023-02-11T03:43:45.241Z,49.37
2023-02-11T03:49:12.336Z,49.60
2023-02-11T03:54:34.187Z,51.97
2023-02-11T03:59:59.815Z,47.93
2023-02-11T04:05:21.836Z,46.73
2023-02-11T04:10:42.987Z,48.97
2023-02-11T04:16:04.658Z,51.37
2023-02-11T04:21:26.690Z,53.20
2023-02-11T04:26:48.358Z,47.17
2023-02-11T04:32:11.491Z,49.60
2023-02-11T04:37:34.503Z,51.63
2023-02-11T04:42:56.107Z,49.23
2023-02-11T04:48:18.058Z,47.20
2023-02-11T04:53:39.308Z,48.10
2023-02-11T04:59:03.992Z,50.20
2023-02-11T05:04:25.693Z,49.90
2023-02-11T05:09:47.233Z,50.77
2023-02-11T05:15:08.886Z,48.50
2023-02-11T05:20:30.469Z,48.33
2023-02-11T05:25:52.302Z,48.93
2023-02-11T05:31:14.972Z,33.97
2023-02-11T05:36:36.261Z,46.43
2023-02-11T05:41:57.772Z,48.47
2023-02-11T05:47:19.316Z,46.03
2023-02-11T05:52:40.918Z,52.17
2023-02-11T05:58:02.322Z,47.40
2023-02-11T06:03:24.022Z,50.33
2023-02-11T06:08:45.514Z,43.53
2023-02-11T06:14:07.338Z,46.00
2023-02-11T06:19:29.060Z,49.87
2023-02-11T06:25:01.307Z,49.80
2023-02-11T06:30:22.758Z,53.83
2023-02-11T06:35:44.397Z,51.53
2023-02-11T06:41:05.722Z,45.20
2023-02-11T06:46:27.265Z,54.57
2023-02-11T06:51:48.568Z,49.63
2023-02-11T06:57:10.034Z,46.83
2023-02-11T07:02:31.732Z,48.37
2023-02-11T07:07:52.853Z,47.60
2023-02-11T07:13:14.467Z,48.93
2023-02-11T07:18:36.351Z,46.67
2023-02-11T07:23:57.553Z,46.10
2023-02-11T07:29:18.909Z,49.03
2023-02-11T07:34:40.477Z,48.27
2023-02-11T07:40:01.968Z,59.07
2023-02-11T07:45:25.462Z,54.73
2023-02-11T07:50:47.779Z,53.30
2023-02-11T07:56:10.376Z,31.30
2023-02-11T08:01:32.213Z,46.70
2023-02-11T08:06:58.868Z,48.57
2023-02-11T08:12:20.317Z,52.97
2023-02-11T08:17:41.791Z,58.20
2023-02-11T08:23:03.262Z,56.17
2023-02-11T08:28:24.920Z,56.97
2023-02-11T08:33:46.955Z,67.07
2023-02-11T08:39:20.113Z,63.67
2023-02-11T08:44:42.275Z,60.60
2023-02-11T08:50:04.978Z,56.97
2023-02-11T08:55:26.285Z,67.73
2023-02-11T09:00:49.707Z,67.13
2023-02-11T09:06:14.052Z,61.73
2023-02-11T09:11:36.678Z,55.93
2023-02-11T09:16:58.195Z,51.90
2023-02-11T09:22:19.645Z,60.80
2023-02-11T09:27:40.934Z,66.63
2023-02-11T09:33:02.544Z,52.30
2023-02-11T09:38:24.030Z,53.73
2023-02-11T09:43:48.284Z,54.17
2023-02-11T09:49:23.018Z,54.80
2023-02-11T09:55:00.440Z,56.43
2023-02-11T10:00:35.174Z,61.80
2023-02-11T10:06:09.804Z,60.67
2023-02-11T10:11:36.290Z,57.90
2023-02-11T10:17:06.454Z,62.17
2023-02-11T10:22:33.617Z,57.70
2023-02-11T10:27:58.223Z,56.50
2023-02-11T10:33:51.651Z,61.53
2023-02-11T10:39:17.430Z,66.23
2023-02-11T10:44:43.166Z,66.43
2023-02-11T10:50:22.394Z,60.77
2023-02-11T10:56:19.944Z,67.30
2023-02-11T11:01:51.973Z,51.40
2023-02-11T11:07:21.510Z,52.63
2023-02-11T11:12:45.861Z,53.97
2023-02-11T11:18:22.470Z,56.00
2023-02-11T11:23:51.289Z,58.97
2023-02-11T11:29:48.790Z,56.97
2023-02-11T11:35:27.867Z,56.77
2023-02-11T11:41:26.245Z,61.13
2023-02-11T11:46:51.347Z,56.03
2023-02-11T11:52:31.358Z,49.57
2023-02-11T11:57:53.050Z,54.07
2023-02-11T12:03:30.353Z,51.53
2023-02-11T12:09:03.705Z,57.83
2023-02-11T12:15:04.309Z,55.33
2023-02-11T12:20:34.430Z,57.90
2023-02-11T12:26:19.318Z,47.77
2023-02-11T12:31:47.852Z,53.67
2023-02-11T12:37:23.941Z,54.77
2023-02-11T12:43:21.722Z,53.23
2023-02-11T12:49:08.227Z,48.77
2023-02-11T12:54:47.711Z,46.73
2023-02-11T13:00:22.302Z,48.90
2023-02-11T13:05:43.802Z,44.03
2023-02-11T13:11:14.321Z,55.90
2023-02-11T13:16:44.234Z,51.60
2023-02-11T13:22:20.497Z,52.03
2023-02-11T13:27:58.617Z,57.43
2023-02-11T13:33:45.117Z,44.17
2023-02-11T13:39:18.999Z,53.83
2023-02-11T13:44:40.464Z,59.53
2023-02-11T13:50:06.354Z,54.10
2023-02-11T13:55:28.737Z,44.83
2023-02-11T14:00:51.939Z,51.03
2023-02-11T14:06:39.079Z,38.87
2023-02-11T14:12:24.143Z,45.33
2023-02-11T14:17:45.839Z,45.00
2023-02-11T14:23:20.336Z,49.13
2023-02-11T14:28:46.939Z,44.13
2023-02-11T14:34:32.181Z,46.23
2023-02-11T14:40:23.184Z,47.70
2023-02-11T14:45:50.092Z,43.60
2023-02-11T14:51:17.496Z,47.03
2023-02-11T14:56:39.869Z,45.80
2023-02-11T15:02:01.716Z,42.97
2023-02-11T15:07:23.443Z,45.07
2023-02-11T15:12:49.969Z,46.63
2023-02-11T15:18:22.677Z,45.07
2023-02-11T15:24:06.604Z,41.50
2023-02-11T15:29:35.804Z,35.40
2023-02-11T15:34:58.570Z,43.63
2023-02-11T15:40:23.684Z,43.90
2023-02-11T15:46:00.250Z,36.93
2023-02-11T15:51:35.607Z,39.33
2023-02-11T15:57:03.796Z,39.87
2023-02-11T16:02:29.031Z,42.63
2023-02-11T16:07:51.513Z,43.77
2023-02-11T16:13:12.643Z,43.50
2023-02-11T16:19:04.801Z,40.93
2023-02-11T16:24:28.591Z,43.90
2023-02-11T16:29:51.374Z,44.23
2023-02-11T16:35:13.827Z,44.57
2023-02-11T16:40:35.843Z,42.30
2023-02-11T16:45:58.384Z,42.77
2023-02-11T16:51:19.719Z,40.37
2023-02-11T16:56:41.723Z,36.77
2023-02-11T17:02:03.408Z,46.77
2023-02-11T17:07:25.307Z,50.80
2023-02-11T17:12:48.243Z,46.80
2023-02-11T17:18:16.986Z,46.17
2023-02-11T17:23:38.844Z,46.83
2023-02-11T17:29:00.249Z,59.10
2023-02-11T17:34:22.778Z,50.37
2023-02-11T17:39:44.803Z,47.97
2023-02-11T17:45:07.009Z,45.83
2023-02-11T17:50:29.508Z,46.07
2023-02-11T17:55:51.288Z,51.07
2023-02-11T18:01:13.696Z,46.93
2023-02-11T18:06:35.393Z,56.50
2023-02-11T18:11:58.462Z,54.50
2023-02-11T18:17:20.764Z,58.20
2023-02-11T18:22:44.297Z,51.53
2023-02-11T18:28:05.527Z,47.47
2023-02-11T18:33:27.736Z,53.93
2023-02-11T18:38:49.554Z,45.83
2023-02-11T18:44:14.283Z,44.13
2023-02-11T18:49:36.342Z,43.57
2023-02-11T18:54:58.017Z,37.57
2023-02-11T19:00:20.895Z,34.53
2023-02-11T19:05:48.066Z,36.23
2023-02-11T19:11:09.259Z,64.77
2023-02-11T19:16:30.639Z,44.43
2023-02-11T19:21:52.251Z,38.23
2023-02-11T19:27:13.866Z,22.57
2023-02-11T19:32:35.370Z,26.27
2023-02-11T19:37:56.952Z,29.60
2023-02-11T19:43:18.128Z,26.87
2023-02-11T19:48:39.381Z,27.93
2023-02-11T19:54:00.782Z,23.67
2023-02-11T19:59:22.309Z,21.87
2023-02-11T20:04:43.961Z,25.53
2023-02-11T20:10:06.234Z,17.07
2023-02-11T20:15:27.798Z,21.63
2023-02-11T20:20:49.275Z,20.73
2023-02-11T20:26:13.905Z,18.93
2023-02-11T20:31:35.927Z,21.93
2023-02-11T20:36:57.358Z,18.27
2023-02-11T20:42:18.469Z,22.30
2023-02-11T20:47:40.052Z,21.47
2023-02-11T20:53:01.558Z,20.23
2023-02-11T20:58:23.195Z,23.63
2023-02-11T21:04:02.591Z,22.77
2023-02-11T21:09:27.239Z,22.47
2023-02-11T21:14:48.795Z,22.43
2023-02-11T21:20:10.363Z,25.17
2023-02-11T21:25:31.819Z,20.97
2023-02-11T21:30:56.223Z,25.17
2023-02-11T21:36:18.103Z,28.73
2023-02-11T21:41:39.826Z,23.63
2023-02-11T21:47:01.318Z,26.23
2023-02-11T21:52:23.079Z,23.03
2023-02-11T21:57:45.923Z,23.03
2023-02-11T22:03:07.465Z,28.10
2023-02-11T22:08:31.531Z,28.83
2023-02-11T22:13:57.880Z,33.03
2023-02-11T22:19:19.137Z,31.57
2023-02-11T22:24:41.812Z,30.37
2023-02-11T22:30:03.941Z,28.67
2023-02-11T22:35:25.346Z,36.33
2023-02-11T22:40:46.803Z,32.90
2023-02-11T22:46:08.946Z,29.77
2023-02-11T22:51:31.329Z,35.37
2023-02-11T22:56:53.366Z,29.53
2023-02-11T23:02:15.031Z,35.73
2023-02-11T23:07:36.493Z,32.53
2023-02-11T23:12:57.644Z,32.63
2023-02-11T23:18:19.227Z,29.97
2023-02-11T23:23:40.770Z,29.23
2023-02-11T23:29:02.470Z,35.03
2023-02-11T23:34:25.659Z,32.33
2023-02-11T23:39:46.830Z,28.00
2023-02-11T23:45:09.151Z,30.60
2023-02-11T23:50:30.719Z,32.50
2023-02-11T23:55:52.285Z,29.87
